createdAt,value
2018-12-12T00:00:59.662Z,5.03
2018-12-12T00:03:28.325Z,7.20
2018-12-12T00:05:57.038Z,5.50
2018-12-12T00:08:25.752Z,5.00
2018-12-12T00:10:54.414Z,3.47
2018-12-12T00:13:23.086Z,4.45
2018-12-12T00:15:51.776Z,6.65
2018-12-12T00:18:20.439Z,5.50
2018-12-12T00:20:49.153Z,5.20
2018-12-12T00:23:17.852Z,4.12
2018-12-12T00:25:46.564Z,6.70
2018-12-12T00:28:15.271Z,7.17
2018-12-12T00:30:43.938Z,5.50
2018-12-12T00:33:12.625Z,3.95
2018-12-12T00:35:41.329Z,6.83
2018-12-12T00:38:10.054Z,4.25
2018-12-12T00:40:38.753Z,4.17
2018-12-12T00:43:07.498Z,5.10
2018-12-12T00:45:36.220Z,5.22
2018-12-12T00:48:05.070Z,3.98
2018-12-12T00:50:34.013Z,7.10
2018-12-12T00:53:02.692Z,7.30
2018-12-12T00:55:31.377Z,6.20
2018-12-12T00:58:00.083Z,5.42
2018-12-12T01:00:28.768Z,6.95
2018-12-12T01:02:57.432Z,9.25
2018-12-12T01:05:26.176Z,6.80
2018-12-12T01:07:54.861Z,7.95
2018-12-12T01:10:23.529Z,5.60
2018-12-12T01:12:52.708Z,5.70
2018-12-12T01:15:21.368Z,5.70
2018-12-12T01:17:50.052Z,8.00
2018-12-12T01:20:18.838Z,6.95
2018-12-12T01:22:47.644Z,13.10
2018-12-12T01:25:16.310Z,5.80
2018-12-12T01:27:44.955Z,6.65
2018-12-12T01:30:13.669Z,6.70
2018-12-12T01:32:42.332Z,6.10
2018-12-12T01:35:11.203Z,6.85
2018-12-12T01:37:39.905Z,4.62
2018-12-12T01:40:08.582Z,6.60
2018-12-12T01:42:37.273Z,5.30
2018-12-12T01:45:05.969Z,6.72
2018-12-12T01:47:34.661Z,6.53
2018-12-12T01:50:03.720Z,4.90
2018-12-12T01:52:32.378Z,5.15
2018-12-12T01:55:01.088Z,4.85
2018-12-12T01:57:29.767Z,5.60
2018-12-12T01:59:58.427Z,8.68
2018-12-12T02:02:27.084Z,6.00
2018-12-12T02:04:55.820Z,7.35
2018-12-12T02:07:24.767Z,6.50
2018-12-12T02:09:53.747Z,5.00
2018-12-12T02:12:22.432Z,5.55
2018-12-12T02:14:51.144Z,6.37
2018-12-12T02:17:19.811Z,7.42
2018-12-12T02:19:48.510Z,5.80
2018-12-12T02:22:17.220Z,6.40
2018-12-12T02:24:45.872Z,6.80
2018-12-12T02:27:14.531Z,8.40
2018-12-12T02:29:43.227Z,6.12
2018-12-12T02:32:11.958Z,6.45
2018-12-12T02:34:40.646Z,7.17
2018-12-12T02:37:09.351Z,6.20
2018-12-12T02:39:38.081Z,6.95
2018-12-12T02:42:06.763Z,6.33
2018-12-12T02:44:35.691Z,7.75
2018-12-12T02:47:04.401Z,7.55
2018-12-12T02:49:33.113Z,6.65
2018-12-12T02:52:01.850Z,6.65
2018-12-12T02:54:30.531Z,7.53
2018-12-12T02:56:59.229Z,9.90
2018-12-12T02:59:27.903Z,5.92
2018-12-12T03:01:56.601Z,6.37
2018-12-12T03:04:25.301Z,5.20
2018-12-12T03:06:55.588Z,5.83
2018-12-12T03:09:24.289Z,7.85
2018-12-12T03:11:52.940Z,6.80
2018-12-12T03:14:21.628Z,7.55
2018-12-12T03:16:50.321Z,6.78
2018-12-12T03:19:19.002Z,10.40
2018-12-12T03:21:47.969Z,7.80
2018-12-12T03:24:16.914Z,8.85
2018-12-12T03:26:45.572Z,6.87
2018-12-12T03:29:14.241Z,8.15
2018-12-12T03:31:42.918Z,10.15
2018-12-12T03:34:11.609Z,9.75
2018-12-12T03:36:40.304Z,9.05
2018-12-12T03:39:08.993Z,7.55
2018-12-12T03:41:37.817Z,10.28
2018-12-12T03:44:06.507Z,8.00
2018-12-12T03:46:35.203Z,9.73
2018-12-12T03:49:03.910Z,9.68
2018-12-12T03:51:32.606Z,8.78
2018-12-12T03:54:01.390Z,9.68
2018-12-12T03:56:30.140Z,9.35
2018-12-12T03:58:58.812Z,8.28
2018-12-12T04:01:27.475Z,10.38
2018-12-12T04:03:56.177Z,11.60
2018-12-12T04:06:24.875Z,10.80
2018-12-12T04:08:53.580Z,8.65
2018-12-12T04:11:22.266Z,8.08
2018-12-12T04:13:51.195Z,10.98
2018-12-12T04:16:20.190Z,10.45
2018-12-12T04:18:49.084Z,12.10
2018-12-12T04:21:17.747Z,12.33
2018-12-12T04:23:46.457Z,10.25
2018-12-12T04:26:15.662Z,10.10
2018-12-12T04:28:44.340Z,10.32
2018-12-12T04:31:13.028Z,9.40
2018-12-12T04:33:41.781Z,11.12
2018-12-12T04:36:10.481Z,11.22
2018-12-12T04:38:39.260Z,9.95
2018-12-12T04:41:08.185Z,13.72
2018-12-12T04:43:36.980Z,13.25
2018-12-12T04:46:05.655Z,12.43
2018-12-12T04:48:34.362Z,12.88
2018-12-12T04:51:03.029Z,16.97
2018-12-12T04:53:31.903Z,16.82
2018-12-12T04:56:00.597Z,14.85
2018-12-12T04:58:29.261Z,17.42
2018-12-12T05:00:57.998Z,17.65
2018-12-12T05:03:26.728Z,17.05
2018-12-12T05:05:56.923Z,23.70
2018-12-12T05:08:25.644Z,20.52
2018-12-12T05:10:55.793Z,24.67
2018-12-12T05:13:24.585Z,21.95
2018-12-12T05:15:53.288Z,24.18
2018-12-12T05:18:21.992Z,25.00
2018-12-12T05:20:50.703Z,23.62
2018-12-12T05:23:19.496Z,28.27
2018-12-12T05:25:48.160Z,26.55
2018-12-12T05:28:16.859Z,23.60
2018-12-12T05:30:45.527Z,24.02
2018-12-12T05:33:14.224Z,31.15
2018-12-12T05:35:42.939Z,27.90
2018-12-12T05:38:11.614Z,26.00
2018-12-12T05:40:40.547Z,32.63
2018-12-12T05:43:09.208Z,27.60
2018-12-12T05:45:38.104Z,25.65
2018-12-12T05:48:06.796Z,25.02
2018-12-12T05:50:35.447Z,25.00
2018-12-12T05:53:04.148Z,28.25
2018-12-12T05:55:32.827Z,29.55
2018-12-12T05:58:01.535Z,29.18
2018-12-12T06:00:30.256Z,28.67
2018-12-12T06:02:58.932Z,33.73
2018-12-12T06:05:27.700Z,31.90
2018-12-12T06:07:56.374Z,29.75
2018-12-12T06:10:25.079Z,30.72
2018-12-12T06:12:53.741Z,31.05
2018-12-12T06:15:22.436Z,28.87
2018-12-12T06:17:51.154Z,34.92
2018-12-12T06:20:19.863Z,29.07
2018-12-12T06:22:48.613Z,33.80
2018-12-12T06:25:17.603Z,40.60
2018-12-12T06:27:46.259Z,27.87
2018-12-12T06:30:14.932Z,28.32
2018-12-12T06:32:43.604Z,31.62
2018-12-12T06:35:12.314Z,31.30
2018-12-12T06:37:40.998Z,26.50
2018-12-12T06:40:09.722Z,28.95
2018-12-12T06:42:38.387Z,27.50
2018-12-12T06:45:07.959Z,28.57
2018-12-12T06:47:36.668Z,25.05
2018-12-12T06:50:06.643Z,27.98
2018-12-12T06:52:35.347Z,25.40
2018-12-12T06:55:04.263Z,29.95
2018-12-12T06:57:32.938Z,30.88
2018-12-12T07:00:01.623Z,26.73
2018-12-12T07:02:30.300Z,29.55
2018-12-12T07:04:58.997Z,30.00
2018-12-12T07:07:27.816Z,27.00
2018-12-12T07:09:56.469Z,30.75
2018-12-12T07:12:25.173Z,36.55
2018-12-12T07:14:53.835Z,33.95
2018-12-12T07:17:22.525Z,31.30
2018-12-12T07:19:51.213Z,28.07
2018-12-12T07:22:19.911Z,37.78
2018-12-12T07:24:48.629Z,27.02
2018-12-12T07:27:17.325Z,26.97
2018-12-12T07:29:46.033Z,26.70
2018-12-12T07:32:14.741Z,26.77
2018-12-12T07:34:43.456Z,26.20
2018-12-12T07:37:12.371Z,22.85
2018-12-12T07:39:41.069Z,29.27
2018-12-12T07:42:09.760Z,17.80
2018-12-12T07:44:38.475Z,23.73
2018-12-12T07:47:07.192Z,24.52
2018-12-12T07:49:35.901Z,20.70
2018-12-12T07:52:04.572Z,21.25
2018-12-12T07:54:33.454Z,23.35
2018-12-12T07:57:02.152Z,22.25
2018-12-12T07:59:30.872Z,19.12
2018-12-12T08:01:59.566Z,25.77
2018-12-12T08:04:28.297Z,20.10
2018-12-12T08:06:56.982Z,26.10
2018-12-12T08:09:25.704Z,23.52
2018-12-12T08:11:54.418Z,21.05
2018-12-12T08:14:23.122Z,23.83
2018-12-12T08:16:51.873Z,24.00
2018-12-12T08:19:20.585Z,20.43
2018-12-12T08:21:49.317Z,20.60
2018-12-12T08:24:17.988Z,27.90
2018-12-12T08:26:46.646Z,34.50
2018-12-12T08:29:15.324Z,34.50
2018-12-12T08:31:43.984Z,51.58
2018-12-12T08:34:12.671Z,31.33
2018-12-12T08:36:41.470Z,27.07
2018-12-12T08:39:10.177Z,18.55
2018-12-12T08:41:38.888Z,24.12
2018-12-12T08:44:07.585Z,18.07
2018-12-12T08:46:36.258Z,21.35
2018-12-12T08:49:04.941Z,20.35
2018-12-12T08:51:33.647Z,28.83
2018-12-12T08:54:02.409Z,23.25
2018-12-12T08:56:31.320Z,23.22
2018-12-12T08:59:00.032Z,21.48
2018-12-12T09:01:28.923Z,19.65
2018-12-12T09:03:57.617Z,14.68
2018-12-12T09:06:26.276Z,20.05
2018-12-12T09:08:54.980Z,17.95
2018-12-12T09:11:23.672Z,20.08
2018-12-12T09:13:52.364Z,18.87
2018-12-12T09:16:21.063Z,21.82
2018-12-12T09:18:49.765Z,20.30
2018-12-12T09:21:18.537Z,16.75
2018-12-12T09:23:47.219Z,19.05
2018-12-12T09:26:16.646Z,19.73
2018-12-12T09:28:45.332Z,20.70
2018-12-12T09:31:14.056Z,26.17
2018-12-12T09:33:42.852Z,21.02
2018-12-12T09:36:11.559Z,18.15
2018-12-12T09:38:40.248Z,15.23
2018-12-12T09:41:08.943Z,16.02
2018-12-12T09:43:37.712Z,17.42
2018-12-12T09:46:06.408Z,18.70
2018-12-12T09:48:35.055Z,15.10
2018-12-12T09:51:07.229Z,19.25
2018-12-12T09:53:34.483Z,20.45
2018-12-12T09:56:03.177Z,15.68
2018-12-12T09:58:31.858Z,15.05
2018-12-12T10:01:00.540Z,15.23
2018-12-12T10:03:31.235Z,13.10
2018-12-12T10:05:59.925Z,16.05
2018-12-12T10:08:28.614Z,12.98
2018-12-12T10:10:57.318Z,17.85
2018-12-12T10:13:26.005Z,13.20
2018-12-12T10:15:54.759Z,13.55
2018-12-12T10:18:23.409Z,11.22
2018-12-12T10:20:52.091Z,17.15
2018-12-12T10:23:20.781Z,12.73
2018-12-12T10:25:49.517Z,10.68
2018-12-12T10:28:18.229Z,10.63
2018-12-12T10:30:46.943Z,12.07
2018-12-12T10:33:15.638Z,12.35
2018-12-12T10:35:44.329Z,12.45
2018-12-12T10:38:12.995Z,12.82
2018-12-12T10:40:41.648Z,15.72
2018-12-12T10:43:10.411Z,10.70
2018-12-12T10:45:39.303Z,10.65
2018-12-12T10:48:08.294Z,13.38
2018-12-12T10:50:37.437Z,11.75
2018-12-12T10:53:06.095Z,11.97
2018-12-12T10:55:34.768Z,14.35
2018-12-12T10:58:03.450Z,15.85
2018-12-12T11:00:33.796Z,9.15
2018-12-12T11:03:07.943Z,14.50
2018-12-12T11:05:36.612Z,13.85
2018-12-12T11:08:05.396Z,14.38
2018-12-12T11:10:34.118Z,33.30
2018-12-12T11:13:02.814Z,22.58
2018-12-12T11:15:31.564Z,15.90
2018-12-12T11:18:00.298Z,15.20
2018-12-12T11:20:28.977Z,14.33
2018-12-12T11:22:57.674Z,20.25
2018-12-12T11:25:26.499Z,21.17
2018-12-12T11:27:55.208Z,32.65
2018-12-12T11:30:23.939Z,32.50
2018-12-12T11:32:52.596Z,26.73
2018-12-12T11:35:21.282Z,25.45
2018-12-12T11:37:49.949Z,25.60
2018-12-12T11:40:18.618Z,24.98
2018-12-12T11:42:47.291Z,27.98
2018-12-12T11:45:16.032Z,29.35
2018-12-12T11:47:44.979Z,30.10
2018-12-12T11:50:13.661Z,23.50
2018-12-12T11:52:42.383Z,21.75
2018-12-12T11:55:11.062Z,18.42
2018-12-12T11:57:40.176Z,18.77
2018-12-12T12:00:10.079Z,25.17
2018-12-12T12:02:38.818Z,24.47
2018-12-12T12:05:07.504Z,18.65
2018-12-12T12:07:36.208Z,25.30
2018-12-12T12:10:06.944Z,20.43
2018-12-12T12:12:35.731Z,24.27
2018-12-12T12:15:05.914Z,25.20
2018-12-12T12:17:34.615Z,26.70
2018-12-12T12:20:03.416Z,20.85
2018-12-12T12:22:32.382Z,25.90
2018-12-12T12:25:01.071Z,26.73
2018-12-12T12:27:29.784Z,29.65
2018-12-12T12:29:58.490Z,24.20
2018-12-12T12:32:27.213Z,22.07
2018-12-12T12:34:55.941Z,28.05
2018-12-12T12:37:24.657Z,27.35
2018-12-12T12:39:53.516Z,29.77
2018-12-12T12:42:22.390Z,25.08
2018-12-12T12:44:51.469Z,27.10
2018-12-12T12:47:20.135Z,28.95
2018-12-12T12:49:48.804Z,31.55
2018-12-12T12:52:17.491Z,26.42
2018-12-12T12:54:46.218Z,27.20
2018-12-12T12:57:14.883Z,39.45
2018-12-12T12:59:43.593Z,28.10
2018-12-12T13:02:12.303Z,28.07
2018-12-12T13:04:40.969Z,26.68
2018-12-12T13:07:09.668Z,25.37
2018-12-12T13:09:38.935Z,25.30
2018-12-12T13:12:08.007Z,26.57
2018-12-12T13:14:37.686Z,23.22
2018-12-12T13:17:06.389Z,35.05
2018-12-12T13:19:35.059Z,26.90
2018-12-12T13:22:03.714Z,25.50
2018-12-12T13:24:32.380Z,30.37
2018-12-12T13:27:01.090Z,29.40
2018-12-12T13:29:29.804Z,30.05
2018-12-12T13:31:58.472Z,25.15
2018-12-12T13:34:27.171Z,23.80
2018-12-12T13:36:55.866Z,19.73
2018-12-12T13:39:24.549Z,22.80
2018-12-12T13:41:53.220Z,26.68
2018-12-12T13:44:22.071Z,23.00
2018-12-12T13:46:50.756Z,23.65
2018-12-12T13:49:19.458Z,20.35
2018-12-12T13:51:48.151Z,22.25
2018-12-12T13:54:16.859Z,38.53
2018-12-12T13:56:45.585Z,23.52
2018-12-12T13:59:14.283Z,18.95
2018-12-12T14:01:43.075Z,19.42
2018-12-12T14:04:11.788Z,22.73
2018-12-12T14:06:40.480Z,22.05
2018-12-12T14:09:09.239Z,20.82
2018-12-12T14:11:37.971Z,20.75
2018-12-12T14:14:06.666Z,20.08
2018-12-12T14:16:35.383Z,21.27
2018-12-12T14:19:04.088Z,22.62
2018-12-12T14:21:33.022Z,20.77
2018-12-12T14:24:01.795Z,23.42
2018-12-12T14:26:30.549Z,16.55
2018-12-12T14:28:59.257Z,21.82
2018-12-12T14:31:27.977Z,20.05
2018-12-12T14:33:56.725Z,21.02
2018-12-12T14:36:25.437Z,16.05
2018-12-12T14:38:54.211Z,18.73
2018-12-12T14:41:23.034Z,21.05
2018-12-12T14:43:51.747Z,19.95
2018-12-12T14:46:20.499Z,22.30
2018-12-12T14:48:49.211Z,21.68
2018-12-12T14:51:17.960Z,19.87
2018-12-12T14:53:46.710Z,24.75
2018-12-12T14:56:15.395Z,20.30
2018-12-12T14:58:44.170Z,21.93
2018-12-12T15:01:13.176Z,22.17
2018-12-12T15:03:41.925Z,21.30
2018-12-12T15:06:10.656Z,21.52
2018-12-12T15:08:39.390Z,25.90
2018-12-12T15:11:08.265Z,22.55
2018-12-12T15:13:36.995Z,20.92
2018-12-12T15:16:05.727Z,22.00
2018-12-12T15:18:34.418Z,24.50
2018-12-12T15:21:03.157Z,20.60
2018-12-12T15:23:31.828Z,22.22
2018-12-12T15:26:00.585Z,27.93
2018-12-12T15:28:29.343Z,19.77
2018-12-12T15:30:58.096Z,19.25
2018-12-12T15:33:26.898Z,19.67
2018-12-12T15:35:55.641Z,19.95
2018-12-12T15:38:24.328Z,22.17
2018-12-12T15:40:53.112Z,24.02
2018-12-12T15:43:21.871Z,18.12
2018-12-12T15:45:50.611Z,16.42
2018-12-12T15:48:19.341Z,20.45
2018-12-12T15:50:48.065Z,20.95
2018-12-12T15:53:17.571Z,16.80
2018-12-12T15:55:46.274Z,26.80
2018-12-12T15:58:14.990Z,23.25
2018-12-12T16:00:44.145Z,25.90
2018-12-12T16:03:13.155Z,22.85
2018-12-12T16:05:41.820Z,23.87
2018-12-12T16:08:10.525Z,26.33
2018-12-12T16:10:39.226Z,27.27
2018-12-12T16:13:07.942Z,20.27
2018-12-12T16:15:36.652Z,24.47
2018-12-12T16:18:05.660Z,25.10
2018-12-12T16:20:34.394Z,26.70
2018-12-12T16:23:03.766Z,26.07
2018-12-12T16:25:32.930Z,26.73
2018-12-12T16:28:01.654Z,26.15
2018-12-12T16:30:30.355Z,24.50
2018-12-12T16:33:00.198Z,23.70
2018-12-12T16:35:29.194Z,21.68
2018-12-12T16:37:57.895Z,24.55
2018-12-12T16:40:26.613Z,23.22
2018-12-12T16:42:55.371Z,29.30
2018-12-12T16:45:24.102Z,27.00
2018-12-12T16:47:52.862Z,26.82
2018-12-12T16:50:21.572Z,25.88
2018-12-12T16:52:50.272Z,26.57
2018-12-12T16:55:19.015Z,32.95
2018-12-12T16:57:47.754Z,70.97
2018-12-12T17:00:16.533Z,39.08
2018-12-12T17:02:45.278Z,27.48
2018-12-12T17:05:14.016Z,28.62
2018-12-12T17:07:42.827Z,25.32
2018-12-12T17:10:11.551Z,23.67
2018-12-12T17:12:40.352Z,25.20
2018-12-12T17:15:09.238Z,26.35
2018-12-12T17:17:37.929Z,30.77
2018-12-12T17:20:07.846Z,28.83
2018-12-12T17:22:36.736Z,22.05
2018-12-12T17:25:05.437Z,21.50
2018-12-12T17:27:34.111Z,20.82
2018-12-12T17:30:02.787Z,24.37
2018-12-12T17:32:31.485Z,24.80
2018-12-12T17:35:01.463Z,21.15
2018-12-12T17:37:30.173Z,20.25
2018-12-12T17:39:58.899Z,25.62
2018-12-12T17:42:27.584Z,26.52
2018-12-12T17:44:56.321Z,27.13
2018-12-12T17:47:25.008Z,21.17
2018-12-12T17:49:53.754Z,19.65
2018-12-12T17:52:22.607Z,23.57
2018-12-12T17:54:51.384Z,20.92
2018-12-12T17:57:20.119Z,24.25
2018-12-12T17:59:48.816Z,19.80
2018-12-12T18:02:17.530Z,18.62
2018-12-12T18:04:46.221Z,18.15
2018-12-12T18:07:14.929Z,21.27
2018-12-12T18:09:43.646Z,23.32
2018-12-12T18:12:12.379Z,20.65
2018-12-12T18:14:41.040Z,16.62
2018-12-12T18:17:09.772Z,17.45
2018-12-12T18:19:38.470Z,16.40
2018-12-12T18:22:07.160Z,18.17
2018-12-12T18:24:35.870Z,19.50
2018-12-12T18:27:04.565Z,20.75
2018-12-12T18:29:33.412Z,20.65
2018-12-12T18:32:02.166Z,21.65
2018-12-12T18:34:30.892Z,23.00
2018-12-12T18:36:59.568Z,18.02
2018-12-12T18:39:28.470Z,20.30
2018-12-12T18:41:57.197Z,21.57
2018-12-12T18:44:25.921Z,21.48
2018-12-12T18:46:54.644Z,24.75
2018-12-12T18:49:23.689Z,21.68
2018-12-12T18:51:52.433Z,27.13
2018-12-12T18:54:21.152Z,20.62
2018-12-12T18:56:50.009Z,22.95
2018-12-12T18:59:18.816Z,20.90
2018-12-12T19:01:47.547Z,23.57
2018-12-12T19:04:16.252Z,31.15
2018-12-12T19:06:45.025Z,23.67
2018-12-12T19:09:13.810Z,25.25
2018-12-12T19:11:44.548Z,21.05
2018-12-12T19:14:13.401Z,27.80
2018-12-12T19:16:42.108Z,19.82
2018-12-12T19:19:10.772Z,26.12
2018-12-12T19:21:39.455Z,22.45
2018-12-12T19:24:08.173Z,24.52
2018-12-12T19:26:37.217Z,23.85
2018-12-12T19:29:05.932Z,25.45
2018-12-12T19:31:34.615Z,27.70
2018-12-12T19:34:03.324Z,27.07
2018-12-12T19:36:32.141Z,21.45
2018-12-12T19:39:00.853Z,25.32
2018-12-12T19:41:29.612Z,102.92
2018-12-12T19:43:58.425Z,26.77
2018-12-12T19:46:27.185Z,28.45
2018-12-12T19:48:55.999Z,23.52
2018-12-12T19:51:24.708Z,23.67
2018-12-12T19:53:53.421Z,22.58
2018-12-12T19:56:22.142Z,24.52
2018-12-12T19:58:50.922Z,25.37
2018-12-12T20:01:20.185Z,23.20
2018-12-12T20:03:48.954Z,23.70
2018-12-12T20:06:17.673Z,24.95
2018-12-12T20:08:46.421Z,23.75
2018-12-12T20:11:15.180Z,23.80
2018-12-12T20:13:43.870Z,23.47
2018-12-12T20:16:12.594Z,22.30
2018-12-12T20:18:41.310Z,24.32
2018-12-12T20:21:10.036Z,24.57
2018-12-12T20:23:38.920Z,24.20
2018-12-12T20:26:07.605Z,21.57
2018-12-12T20:28:36.350Z,23.67
2018-12-12T20:31:05.125Z,22.25
2018-12-12T20:33:33.969Z,26.00
2018-12-12T20:36:02.733Z,23.45
2018-12-12T20:38:31.682Z,29.07
2018-12-12T20:41:00.372Z,30.62
2018-12-12T20:43:30.667Z,29.80
2018-12-12T20:46:00.239Z,23.90
2018-12-12T20:48:28.916Z,24.15
2018-12-12T20:50:57.655Z,26.48
2018-12-12T20:53:26.720Z,26.37
2018-12-12T20:55:55.441Z,25.85
2018-12-12T20:58:24.258Z,24.32
2018-12-12T21:00:52.928Z,24.47
2018-12-12T21:03:21.648Z,37.40
2018-12-12T21:05:54.470Z,27.40
2018-12-12T21:08:21.690Z,26.37
2018-12-12T21:10:50.433Z,26.37
2018-12-12T21:13:19.209Z,26.27
2018-12-12T21:15:48.093Z,27.77
2018-12-12T21:18:16.800Z,25.12
2018-12-12T21:20:45.603Z,24.32
2018-12-12T21:23:14.373Z,24.57
2018-12-12T21:25:43.585Z,27.15
2018-12-12T21:28:15.747Z,25.25
2018-12-12T21:30:44.493Z,28.00
2018-12-12T21:33:13.170Z,30.68
2018-12-12T21:35:42.516Z,30.55
2018-12-12T21:38:11.189Z,28.07
2018-12-12T21:40:39.904Z,33.18
2018-12-12T21:43:08.646Z,31.02
2018-12-12T21:45:37.866Z,36.45
2018-12-12T21:48:06.767Z,28.87
2018-12-12T21:50:35.498Z,36.42
2018-12-12T21:53:04.242Z,33.02
2018-12-12T21:55:32.983Z,34.55
2018-12-12T21:58:01.727Z,33.25
2018-12-12T22:00:30.504Z,31.97
2018-12-12T22:02:59.413Z,36.58
2018-12-12T22:05:28.178Z,32.35
2018-12-12T22:07:56.992Z,32.78
2018-12-12T22:10:25.958Z,36.48
2018-12-12T22:12:54.647Z,39.15
2018-12-12T22:15:23.395Z,46.48
2018-12-12T22:17:52.075Z,40.05
2018-12-12T22:20:20.837Z,38.67
2018-12-12T22:22:49.564Z,44.25
2018-12-12T22:25:18.414Z,47.50
2018-12-12T22:27:47.287Z,40.45
2018-12-12T22:30:16.021Z,35.48
2018-12-12T22:32:44.773Z,35.45
2018-12-12T22:35:13.472Z,32.65
2018-12-12T22:37:42.313Z,36.80
2018-12-12T22:40:11.065Z,36.20
2018-12-12T22:42:40.014Z,39.38
2018-12-12T22:45:09.082Z,36.28
2018-12-12T22:47:37.817Z,39.48
2018-12-12T22:50:06.637Z,41.02
2018-12-12T22:52:35.406Z,42.40
2018-12-12T22:55:04.548Z,38.67
2018-12-12T22:57:33.260Z,36.68
2018-12-12T23:00:01.961Z,39.25
2018-12-12T23:02:30.933Z,34.63
2018-12-12T23:04:59.636Z,39.80
2018-12-12T23:07:28.364Z,39.95
2018-12-12T23:09:57.044Z,37.40
2018-12-12T23:12:25.832Z,34.70
2018-12-12T23:14:54.561Z,44.70
2018-12-12T23:17:23.243Z,43.80
2018-12-12T23:19:52.020Z,50.35
2018-12-12T23:22:20.741Z,52.15
2018-12-12T23:24:49.449Z,50.15
2018-12-12T23:27:18.155Z,75.25
2018-12-12T23:29:46.879Z,58.40
2018-12-12T23:32:15.609Z,57.23
2018-12-12T23:34:44.364Z,55.75
2018-12-12T23:37:13.272Z,54.03
2018-12-12T23:39:41.953Z,55.88
2018-12-12T23:42:10.728Z,42.53
2018-12-12T23:44:39.574Z,46.48
2018-12-12T23:47:08.471Z,48.20
2018-12-12T23:49:37.302Z,45.78
2018-12-12T23:52:06.013Z,46.00
2018-12-12T23:54:34.753Z,38.45
2018-12-12T23:57:03.488Z,41.90
2018-12-12T23:59:32.200Z,39.88
